Capitol Logistics 7354

Operating for MZN



KRIV
March Air Reserve Base
Riverside, California
KIAH
George Bush Intcntl/Houston Airport
Houston, Texas

Activity Log

Date Flight Route Aircraft Duration
No Flights Yet

Route Details

Aircraft Information
Primary: Boeing 737-800BCF
Backup: Boeing 757-200SF
Route Data
Distance: 1140nm
Duration: 2h 35m
Recm'd Route: SKYES4 TRM J169 TFD ELP SJT DIESL TTORO3
Origin Wx: KRIV 141958Z 32007KT 10SM SCT045 BKN250 17/05 A2996 RMK AO2A SLP141 T01720052
Dest. Wx: KIAH 141953Z 03010KT 1 1/4SM -RA BR OVC005 23/22 A2993 RMK AO2 DZB35E51RAB51 SLP133 P0000 T02330217
Notes: